createdAt,value
2023-04-11T00:04:23.017Z,52.40
2023-04-11T00:09:25.370Z,52.91
2023-04-11T00:14:28.962Z,53.57
2023-04-11T00:19:33.447Z,53.25
2023-04-11T00:24:35.783Z,54.41
2023-04-11T00:29:37.970Z,54.96
2023-04-11T00:34:41.176Z,55.31
2023-04-11T00:39:45.162Z,55.50
2023-04-11T00:44:47.624Z,55.96
2023-04-11T00:49:49.968Z,57.22
2023-04-11T00:54:52.321Z,57.66
2023-04-11T00:59:54.667Z,57.07
2023-04-11T01:04:57.582Z,57.46
2023-04-11T01:10:02.696Z,56.73
2023-04-11T01:15:06.441Z,60.68
2023-04-11T01:20:10.267Z,67.58
2023-04-11T01:25:15.662Z,70.31
2023-04-11T01:30:18.231Z,71.92
2023-04-11T01:35:20.858Z,76.03
2023-04-11T01:40:24.034Z,77.77
2023-04-11T01:45:28.698Z,79.95
2023-04-11T01:50:31.071Z,79.28
2023-04-11T01:55:33.286Z,79.27
2023-04-11T02:00:37.134Z,79.54
2023-04-11T02:05:39.882Z,79.24
2023-04-11T02:10:42.128Z,80.37
2023-04-11T02:15:44.511Z,81.31
2023-04-11T02:20:46.840Z,81.99
2023-04-11T02:25:48.995Z,81.28
2023-04-11T02:30:51.233Z,83.47
2023-04-11T02:35:54.197Z,82.19
2023-04-11T02:40:56.714Z,81.87
2023-04-11T02:46:09.599Z,81.14
2023-04-11T02:51:15.420Z,80.87
2023-04-11T02:56:19.398Z,80.97
2023-04-11T03:01:25.622Z,82.50
2023-04-11T03:06:30.323Z,82.27
2023-04-11T03:11:35.636Z,81.99
2023-04-11T03:16:39.181Z,80.48
2023-04-11T03:21:41.632Z,79.97
2023-04-11T03:26:44.761Z,79.53
2023-04-11T03:31:51.066Z,78.73
2023-04-11T03:36:54.281Z,79.25
2023-04-11T03:41:56.702Z,79.16
2023-04-11T03:46:59.840Z,79.00
2023-04-11T03:52:10.149Z,78.32
2023-04-11T03:57:14.137Z,78.93
2023-04-11T04:02:16.798Z,79.69
2023-04-11T04:07:27.788Z,77.98
2023-04-11T04:12:39.851Z,79.13
2023-04-11T04:17:50.981Z,80.41
2023-04-11T04:23:00.922Z,78.96
2023-04-11T04:28:20.192Z,78.54
2023-04-11T04:33:23.316Z,79.07
2023-04-11T04:38:28.996Z,77.82
2023-04-11T04:43:36.029Z,77.80
2023-04-11T04:48:47.235Z,78.24
2023-04-11T04:53:49.580Z,77.82
2023-04-11T04:58:51.768Z,76.06
2023-04-11T05:04:02.231Z,68.29
2023-04-11T05:09:19.805Z,68.15
2023-04-11T05:14:23.837Z,69.00
2023-04-11T05:19:26.237Z,69.34
2023-04-11T05:24:28.673Z,67.77
2023-04-11T05:29:32.826Z,69.98
2023-04-11T05:34:53.852Z,68.72
2023-04-11T05:40:05.799Z,69.20
2023-04-11T05:45:08.960Z,67.43
2023-04-11T05:50:11.669Z,66.72
2023-04-11T05:55:14.125Z,67.82
2023-04-11T06:00:17.284Z,65.38
2023-04-11T06:05:21.149Z,65.45
2023-04-11T06:10:23.550Z,68.74
2023-04-11T06:15:27.026Z,70.70
2023-04-11T06:20:29.303Z,68.77
2023-04-11T06:25:31.731Z,70.00
2023-04-11T06:30:33.941Z,67.97
2023-04-11T06:35:36.694Z,68.55
2023-04-11T06:40:38.866Z,67.79
2023-04-11T06:45:40.987Z,66.95
2023-04-11T06:50:43.150Z,68.79
2023-04-11T06:55:49.662Z,67.49
2023-04-11T07:00:52.988Z,67.28
2023-04-11T07:05:55.232Z,68.57
2023-04-11T07:10:57.564Z,70.18
2023-04-11T07:15:59.910Z,68.88
2023-04-11T07:21:02.066Z,68.00
2023-04-11T07:26:04.526Z,68.14
2023-04-11T07:31:11.042Z,68.05
2023-04-11T07:36:13.348Z,67.33
2023-04-11T07:41:16.563Z,67.90
2023-04-11T07:46:18.913Z,67.59
2023-04-11T07:51:21.085Z,67.85
2023-04-11T07:56:23.237Z,65.06
2023-04-11T08:01:26.976Z,65.82
2023-04-11T08:06:29.379Z,65.04
2023-04-11T08:11:32.152Z,62.89
2023-04-11T08:16:36.030Z,64.05
2023-04-11T08:21:39.156Z,61.79
2023-04-11T08:26:41.479Z,63.13
2023-04-11T08:31:44.732Z,61.05
2023-04-11T08:36:47.092Z,68.82
2023-04-11T08:41:49.258Z,69.88
2023-04-11T08:46:51.690Z,69.81
2023-04-11T08:51:54.795Z,69.08
2023-04-11T08:56:56.929Z,69.36
2023-04-11T09:02:09.835Z,69.77
2023-04-11T09:07:12.253Z,70.04
2023-04-11T09:12:14.686Z,68.71
2023-04-11T09:17:17.270Z,67.66
2023-04-11T09:22:19.519Z,69.06
2023-04-11T09:27:24.679Z,68.38
2023-04-11T09:32:34.828Z,66.68
2023-04-11T09:37:50.320Z,68.12
2023-04-11T09:43:04.983Z,69.15
2023-04-11T09:48:07.200Z,66.56
2023-04-11T09:53:11.258Z,65.63
2023-04-11T09:58:14.054Z,64.54
2023-04-11T10:03:20.282Z,64.25
2023-04-11T10:08:34.165Z,65.53
2023-04-11T10:13:45.036Z,63.83
2023-04-11T10:18:56.541Z,62.62
2023-04-11T10:24:23.336Z,62.93
2023-04-11T10:29:31.406Z,61.44
2023-04-11T10:34:35.684Z,61.65
2023-04-11T10:40:00.829Z,60.20
2023-04-11T10:45:25.513Z,59.95
2023-04-11T10:50:27.682Z,58.84
2023-04-11T10:55:42.956Z,57.93
2023-04-11T11:00:51.606Z,58.54
2023-04-11T11:06:10.481Z,58.69
2023-04-11T11:11:14.616Z,59.42
2023-04-11T11:16:26.119Z,59.38
2023-04-11T11:21:30.246Z,59.34
2023-04-11T11:26:43.050Z,58.43
2023-04-11T11:31:47.948Z,56.08
2023-04-11T11:36:50.743Z,56.45
2023-04-11T11:41:53.746Z,58.50
2023-04-11T11:47:09.356Z,58.36
2023-04-11T11:52:12.783Z,59.12
2023-04-11T11:57:23.211Z,58.57
2023-04-11T12:02:26.861Z,55.97
2023-04-11T12:07:38.063Z,57.63
2023-04-11T12:12:53.327Z,56.66
2023-04-11T12:17:56.670Z,53.52
2023-04-11T12:22:58.961Z,55.72
2023-04-11T12:28:01.152Z,53.83
2023-04-11T12:33:03.641Z,53.01
2023-04-11T12:38:06.563Z,50.50
2023-04-11T12:43:08.868Z,52.04
2023-04-11T12:48:11.059Z,53.31
2023-04-11T12:53:13.179Z,51.97
2023-04-11T12:58:15.787Z,52.79
2023-04-11T13:03:18.306Z,51.10
2023-04-11T13:08:20.867Z,51.92
2023-04-11T13:13:23.138Z,53.37
2023-04-11T13:18:25.400Z,52.30
2023-04-11T13:23:27.510Z,52.48
2023-04-11T13:28:30.044Z,54.06
2023-04-11T13:33:32.647Z,53.45
2023-04-11T13:38:34.910Z,50.56
2023-04-11T13:43:37.280Z,51.75
2023-04-11T13:48:39.590Z,50.65
2023-04-11T13:53:41.904Z,50.08
2023-04-11T13:58:44.511Z,47.66
2023-04-11T14:03:48.327Z,47.69
2023-04-11T14:08:51.703Z,48.64
2023-04-11T14:13:54.037Z,46.98
2023-04-11T14:18:56.464Z,49.23
2023-04-11T14:23:59.310Z,48.49
2023-04-11T14:29:02.832Z,47.22
2023-04-11T14:34:05.217Z,46.95
2023-04-11T14:39:07.440Z,48.13
2023-04-11T14:44:09.761Z,48.23
2023-04-11T14:49:12.446Z,48.25
2023-04-11T14:54:14.585Z,44.97
2023-04-11T14:59:16.774Z,48.09
2023-04-11T15:04:19.447Z,48.44
2023-04-11T15:09:22.182Z,47.23
2023-04-11T15:14:29.611Z,46.73
2023-04-11T15:19:31.906Z,46.78
2023-04-11T15:24:34.244Z,45.58
2023-04-11T15:29:36.634Z,46.43
2023-04-11T15:34:40.372Z,46.35
2023-04-11T15:39:42.691Z,45.15
2023-04-11T15:44:45.971Z,45.72
2023-04-11T15:49:48.106Z,49.18
2023-04-11T15:54:50.559Z,49.08
2023-04-11T15:59:52.878Z,48.96
2023-04-11T16:04:56.064Z,48.80
2023-04-11T16:09:58.478Z,48.75
2023-04-11T16:15:00.866Z,48.57
2023-04-11T16:20:07.302Z,49.25
2023-04-11T16:25:10.006Z,50.09
2023-04-11T16:30:12.576Z,50.61
2023-04-11T16:35:14.732Z,50.15
2023-04-11T16:40:17.005Z,49.15
2023-04-11T16:45:19.238Z,50.11
2023-04-11T16:50:21.938Z,49.85
2023-04-11T16:55:24.383Z,51.13
2023-04-11T17:00:29.601Z,52.60
2023-04-11T17:05:34.895Z,52.51
2023-04-11T17:10:37.327Z,52.63
2023-04-11T17:15:39.628Z,52.61
2023-04-11T17:20:43.588Z,53.67
2023-04-11T17:25:45.945Z,52.49
2023-04-11T17:30:48.685Z,53.58
2023-04-11T17:35:54.465Z,53.46
2023-04-11T17:41:00.196Z,51.88
2023-04-11T17:46:09.346Z,51.64
2023-04-11T17:51:11.704Z,51.79
2023-04-11T17:56:14.448Z,52.21
2023-04-11T18:01:16.885Z,51.50
2023-04-11T18:06:19.283Z,52.08
2023-04-11T18:11:21.750Z,52.66
2023-04-11T18:16:23.916Z,52.21
2023-04-11T18:21:26.394Z,51.07
2023-04-11T18:26:29.281Z,51.25
2023-04-11T18:31:35.191Z,51.31
2023-04-11T18:36:37.603Z,52.04
2023-04-11T18:41:39.868Z,51.88
2023-04-11T18:46:42.088Z,52.20
2023-04-11T18:51:44.411Z,51.74
2023-04-11T18:56:49.069Z,52.16
2023-04-11T19:01:55.598Z,51.65
2023-04-11T19:06:59.154Z,51.76
2023-04-11T19:12:01.351Z,53.16
2023-04-11T19:17:03.740Z,52.87
2023-04-11T19:22:06.144Z,52.83
2023-04-11T19:27:08.629Z,52.49
2023-04-11T19:32:12.262Z,53.14
2023-04-11T19:37:16.399Z,51.94
2023-04-11T19:42:19.044Z,52.72
2023-04-11T19:47:21.198Z,54.70
2023-04-11T19:52:23.554Z,55.88
2023-04-11T19:57:27.873Z,56.27
2023-04-11T20:02:30.135Z,55.83
2023-04-11T20:07:32.421Z,55.65
2023-04-11T20:12:35.260Z,56.62
2023-04-11T20:17:37.411Z,55.12
2023-04-11T20:22:44.920Z,53.95
2023-04-11T20:27:47.717Z,54.84
2023-04-11T20:32:50.049Z,56.29
2023-04-11T20:37:53.974Z,58.03
2023-04-11T20:42:56.533Z,59.10
2023-04-11T20:48:01.750Z,60.64
2023-04-11T20:53:04.105Z,60.87
2023-04-11T20:58:08.695Z,61.46
2023-04-11T21:03:11.207Z,63.49
2023-04-11T21:08:13.987Z,63.56
2023-04-11T21:13:16.308Z,64.60
2023-04-11T21:18:18.502Z,66.42
2023-04-11T21:23:20.752Z,67.61
2023-04-11T21:28:22.852Z,68.51
2023-04-11T21:33:24.995Z,69.62
2023-04-11T21:38:27.182Z,72.04
2023-04-11T21:43:29.304Z,72.30
2023-04-11T21:48:31.419Z,70.96
2023-04-11T21:53:33.582Z,71.95
2023-04-11T21:58:36.442Z,72.34
2023-04-11T22:03:42.736Z,72.13
2023-04-11T22:08:50.841Z,72.71
2023-04-11T22:13:53.133Z,71.42
2023-04-11T22:18:58.132Z,71.11
2023-04-11T22:24:02.261Z,72.16
2023-04-11T22:29:05.191Z,69.72
2023-04-11T22:34:10.280Z,69.83
2023-04-11T22:39:12.514Z,70.49
2023-04-11T22:44:14.627Z,70.19
2023-04-11T22:49:17.752Z,68.59
2023-04-11T22:54:20.222Z,68.54
2023-04-11T22:59:26.212Z,67.70
2023-04-11T23:04:28.494Z,66.72
2023-04-11T23:09:30.875Z,66.78
2023-04-11T23:14:33.019Z,67.47
2023-04-11T23:19:35.308Z,68.78
2023-04-11T23:24:37.541Z,67.76
2023-04-11T23:29:39.898Z,67.65
2023-04-11T23:34:42.215Z,67.66
2023-04-11T23:39:44.398Z,66.81
2023-04-11T23:44:48.184Z,66.72
2023-04-11T23:49:50.620Z,66.60
2023-04-11T23:54:52.956Z,66.21
2023-04-11T23:59:55.426Z,67.30
